createdAt,value
2018-09-12T00:01:23.167Z,87.20
2018-09-12T00:03:49.849Z,87.00
2018-09-12T00:06:16.563Z,88.10
2018-09-12T00:08:49.793Z,87.60
2018-09-12T00:11:16.582Z,86.80
2018-09-12T00:13:44.089Z,86.40
2018-09-12T00:16:10.976Z,86.30
2018-09-12T00:18:38.966Z,86.00
2018-09-12T00:21:06.014Z,86.60
2018-09-12T00:23:33.783Z,87.10
2018-09-12T00:28:33.039Z,84.70
2018-09-12T00:30:59.976Z,83.90
2018-09-12T00:33:27.908Z,84.60
2018-09-12T00:40:59.727Z,84.40
2018-09-12T00:43:26.877Z,83.30
2018-09-12T00:45:53.619Z,83.90
2018-09-12T00:48:21.063Z,84.00
2018-09-12T00:50:49.032Z,83.60
2018-09-12T00:53:17.436Z,83.30
2018-09-12T00:55:48.095Z,83.30
2018-09-12T00:58:16.573Z,84.30
2018-09-12T01:00:44.404Z,83.90
2018-09-12T01:05:43.180Z,87.10
2018-09-12T01:08:11.987Z,85.80
2018-09-12T01:10:38.858Z,88.10
2018-09-12T01:13:08.964Z,86.90
2018-09-12T01:15:38.108Z,86.80
2018-09-12T01:18:07.162Z,88.10
2018-09-12T01:23:06.997Z,89.40
2018-09-12T01:25:33.968Z,89.90
2018-09-12T01:28:02.582Z,89.80
2018-09-12T01:30:31.064Z,90.10
2018-09-12T01:32:57.619Z,87.70
2018-09-12T01:35:25.286Z,86.10
2018-09-12T01:37:58.824Z,87.20
2018-09-12T01:40:26.994Z,89.30
2018-09-12T01:42:54.236Z,89.10
2018-09-12T01:45:22.027Z,88.10
2018-09-12T01:47:50.355Z,87.50
2018-09-12T01:50:17.919Z,89.20
2018-09-12T01:52:47.032Z,87.40
2018-09-12T01:55:13.768Z,88.80
2018-09-12T01:57:40.771Z,88.50
2018-09-12T02:00:08.640Z,88.50
2018-09-12T02:02:37.771Z,90.10
2018-09-12T02:05:06.658Z,89.30
2018-09-12T02:07:34.351Z,90.00
2018-09-12T02:10:02.800Z,90.10
2018-09-12T02:12:30.277Z,89.70
2018-09-12T02:14:57.599Z,89.40
2018-09-12T02:17:26.745Z,88.30
2018-09-12T02:19:54.252Z,89.10
2018-09-12T02:24:53.517Z,90.00
2018-09-12T02:27:21.235Z,89.30
2018-09-12T02:29:49.616Z,87.70
2018-09-12T02:32:18.709Z,89.30
2018-09-12T02:34:46.551Z,87.90
2018-09-12T02:37:15.521Z,89.80
2018-09-12T02:39:44.210Z,88.50
2018-09-12T02:42:11.635Z,87.30
2018-09-12T02:44:39.582Z,87.30
2018-09-12T02:47:09.147Z,88.00
2018-09-12T02:49:37.138Z,89.00
2018-09-12T02:52:04.851Z,88.60
2018-09-12T02:54:34.121Z,89.70
2018-09-12T02:57:01.646Z,88.80
2018-09-12T02:59:28.891Z,90.20
2018-09-12T03:01:56.964Z,90.40
2018-09-12T03:09:27.994Z,90.20
2018-09-12T03:11:55.710Z,90.70
2018-09-12T03:14:25.536Z,90.70
2018-09-12T03:21:56.275Z,91.30
2018-09-12T03:24:23.213Z,90.90
2018-09-12T03:26:51.280Z,91.30
2018-09-12T03:29:18.849Z,91.80
2018-09-12T03:31:46.498Z,90.60
2018-09-12T03:34:13.457Z,91.00
2018-09-12T03:36:40.457Z,91.60
2018-09-12T03:39:08.224Z,91.30
2018-09-12T03:41:37.780Z,91.20
2018-09-12T03:46:37.354Z,91.20
2018-09-12T03:49:05.038Z,91.40
2018-09-12T03:51:32.732Z,91.00
2018-09-12T03:53:59.745Z,90.80
2018-09-12T03:56:26.642Z,91.20
2018-09-12T03:58:53.857Z,91.00
2018-09-12T04:04:00.117Z,91.40
2018-09-12T04:06:30.263Z,91.00
2018-09-12T04:08:56.812Z,90.70
2018-09-12T04:11:24.956Z,91.40
2018-09-12T04:13:54.183Z,91.00
2018-09-12T04:16:23.265Z,91.00
2018-09-12T04:18:52.378Z,90.70
2018-09-12T04:21:19.066Z,90.10
2018-09-12T04:23:47.369Z,90.10
2018-09-12T04:26:16.314Z,90.20
2018-09-12T04:28:43.544Z,89.70
2018-09-12T04:31:10.492Z,90.00
2018-09-12T04:33:39.637Z,90.40
2018-09-12T04:38:39.168Z,90.10
2018-09-12T04:41:05.781Z,90.40
2018-09-12T04:43:32.523Z,90.20
2018-09-12T04:48:31.168Z,90.40
2018-09-12T04:50:58.590Z,90.40
2018-09-12T04:53:25.786Z,89.30
2018-09-12T04:55:53.230Z,90.10
2018-09-12T04:58:20.226Z,90.00
2018-09-12T05:00:47.759Z,88.70
2018-09-12T05:03:14.902Z,88.50
2018-09-12T05:05:41.464Z,89.50
2018-09-12T05:08:07.976Z,89.30
2018-09-12T05:10:34.993Z,88.80
2018-09-12T05:13:01.636Z,88.10
2018-09-12T05:15:29.164Z,90.20
2018-09-12T05:17:55.859Z,88.30
2018-09-12T05:20:22.511Z,87.90
2018-09-12T05:22:49.505Z,87.60
2018-09-12T05:25:16.631Z,87.00
2018-09-12T05:27:44.933Z,86.00
2018-09-12T05:30:11.687Z,87.30
2018-09-12T05:32:39.999Z,86.30
2018-09-12T05:35:07.969Z,85.40
2018-09-12T05:37:34.651Z,87.10
2018-09-12T05:40:01.662Z,87.20
2018-09-12T05:42:28.439Z,85.80
2018-09-12T05:44:55.113Z,86.40
2018-09-12T05:47:23.100Z,85.20
2018-09-12T05:49:49.689Z,84.90
2018-09-12T05:52:17.105Z,85.00
2018-09-12T05:54:46.071Z,83.80
2018-09-12T05:57:12.875Z,83.30
2018-09-12T05:59:39.547Z,83.20
2018-09-12T06:02:06.317Z,81.00
2018-09-12T06:04:33.523Z,80.50
2018-09-12T06:07:01.243Z,80.20
2018-09-12T06:09:29.560Z,79.00
2018-09-12T06:11:56.304Z,77.50
2018-09-12T06:14:22.885Z,77.50
2018-09-12T06:16:49.540Z,79.30
2018-09-12T06:19:16.752Z,78.50
2018-09-12T06:21:43.323Z,75.00
2018-09-12T06:24:12.979Z,76.10
2018-09-12T06:26:39.880Z,75.40
2018-09-12T06:29:06.558Z,73.10
2018-09-12T06:31:36.412Z,75.10
2018-09-12T06:34:02.954Z,72.80
2018-09-12T06:36:35.573Z,72.50
2018-09-12T06:41:35.727Z,71.10
2018-09-12T06:44:02.395Z,69.90
2018-09-12T06:46:31.723Z,69.60
2018-09-12T06:51:30.098Z,70.00
2018-09-12T06:53:57.524Z,67.60
2018-09-12T06:56:24.192Z,67.70
2018-09-12T06:58:51.312Z,70.10
2018-09-12T07:01:17.935Z,70.10
2018-09-12T07:03:45.740Z,67.80
2018-09-12T07:06:12.356Z,67.40
2018-09-12T07:08:40.006Z,67.90
2018-09-12T07:11:11.156Z,68.40
2018-09-12T07:13:39.715Z,69.70
2018-09-12T07:16:07.968Z,67.70
2018-09-12T07:18:35.675Z,66.30
2018-09-12T07:23:34.554Z,66.50
2018-09-12T07:26:01.530Z,66.50
2018-09-12T07:28:28.860Z,66.40
2018-09-12T07:30:55.709Z,65.70
2018-09-12T07:33:22.342Z,67.20
2018-09-12T07:40:53.307Z,65.50
2018-09-12T07:43:20.351Z,65.40
2018-09-12T07:45:47.011Z,66.30
2018-09-12T07:50:46.892Z,66.60
2018-09-12T07:53:16.435Z,65.30
2018-09-12T07:55:44.088Z,64.70
2018-09-12T07:58:11.549Z,65.70
2018-09-12T08:00:39.816Z,64.10
2018-09-12T08:03:06.666Z,64.60
2018-09-12T08:05:33.433Z,64.10
2018-09-12T08:08:00.096Z,64.10
2018-09-12T08:10:26.716Z,63.60
2018-09-12T08:12:53.766Z,64.00
2018-09-12T08:15:21.647Z,63.70
2018-09-12T08:17:49.503Z,61.90
2018-09-12T08:20:16.097Z,61.20
2018-09-12T08:22:42.741Z,62.90
2018-09-12T08:25:12.465Z,60.80
2018-09-12T08:27:48.420Z,61.60
2018-09-12T08:30:15.085Z,61.20
2018-09-12T08:32:46.422Z,60.30
2018-09-12T08:35:16.953Z,61.00
2018-09-12T08:37:43.450Z,60.00
2018-09-12T08:42:45.583Z,60.50
2018-09-12T08:45:16.814Z,60.40
2018-09-12T08:47:49.785Z,59.90
2018-09-12T08:50:21.691Z,59.50
2018-09-12T08:52:48.510Z,60.10
2018-09-12T08:55:21.297Z,60.40
2018-09-12T08:57:57.571Z,61.30
2018-09-12T09:00:25.089Z,59.60
2018-09-12T09:02:58.040Z,58.80
2018-09-12T09:05:24.703Z,57.60
2018-09-12T09:07:52.126Z,55.90
2018-09-12T09:12:52.015Z,56.70
2018-09-12T09:15:18.660Z,55.40
2018-09-12T09:17:46.108Z,55.50
2018-09-12T09:20:12.773Z,54.70
2018-09-12T09:22:40.044Z,54.40
2018-09-12T09:25:09.935Z,54.70
2018-09-12T09:27:36.673Z,55.20
2018-09-12T09:30:03.325Z,53.50
2018-09-12T09:32:37.112Z,54.50
2018-09-12T09:35:05.438Z,55.70
2018-09-12T09:37:33.047Z,53.80
2018-09-12T09:40:04.925Z,51.30
2018-09-12T09:42:34.929Z,53.90
2018-09-12T09:45:03.953Z,52.20
2018-09-12T09:50:07.530Z,52.80
2018-09-12T09:52:34.940Z,50.50
2018-09-12T09:55:01.638Z,50.60
2018-09-12T09:57:29.118Z,50.70
2018-09-12T10:00:03.169Z,51.10
2018-09-12T10:05:12.878Z,51.30
2018-09-12T10:07:45.519Z,50.10
2018-09-12T10:10:12.005Z,51.90
2018-09-12T10:12:45.584Z,48.30
2018-09-12T10:17:50.450Z,49.70
2018-09-12T10:20:21.266Z,48.90
2018-09-12T10:22:47.831Z,47.50
2018-09-12T10:25:21.401Z,49.10
2018-09-12T10:27:48.307Z,47.50
2018-09-12T10:30:17.441Z,48.30
2018-09-12T10:32:47.055Z,47.20
2018-09-12T10:35:22.618Z,48.10
2018-09-12T10:37:56.896Z,46.60
2018-09-12T10:40:23.584Z,48.60
2018-09-12T10:42:51.536Z,49.50
2018-09-12T10:45:18.918Z,47.90
2018-09-12T10:47:46.135Z,47.10
2018-09-12T10:50:21.777Z,46.80
2018-09-12T10:52:48.417Z,47.90
2018-09-12T10:55:22.175Z,46.60
2018-09-12T10:57:48.943Z,47.90
2018-09-12T11:00:15.532Z,46.60
2018-09-12T11:02:49.879Z,45.30
2018-09-12T11:05:16.576Z,44.40
2018-09-12T11:07:53.104Z,44.70
2018-09-12T11:10:24.206Z,44.10
2018-09-12T11:12:51.826Z,45.20
2018-09-12T11:15:18.355Z,45.20
2018-09-12T11:17:45.141Z,46.30
2018-09-12T11:20:12.385Z,45.20
2018-09-12T11:22:43.977Z,45.90
2018-09-12T11:25:20.021Z,45.50
2018-09-12T11:27:48.082Z,43.40
2018-09-12T11:30:14.715Z,43.60
2018-09-12T11:35:19.207Z,46.80
2018-09-12T11:37:46.446Z,43.30
2018-09-12T11:45:49.113Z,44.50
2018-09-12T11:51:00.599Z,43.20
2018-09-12T11:53:31.869Z,42.70
2018-09-12T11:56:02.416Z,42.90
2018-09-12T11:58:39.054Z,44.40
2018-09-12T12:01:13.994Z,43.60
2018-09-12T12:03:40.664Z,43.70
2018-09-12T12:06:10.395Z,43.30
2018-09-12T12:08:47.318Z,41.90
2018-09-12T12:11:14.029Z,42.80
2018-09-12T12:13:42.567Z,43.60
2018-09-12T12:16:13.882Z,44.20
2018-09-12T12:18:41.825Z,43.20
2018-09-12T12:21:08.837Z,42.60
2018-09-12T12:23:35.585Z,43.50
2018-09-12T12:26:03.320Z,41.40
2018-09-12T12:28:30.619Z,43.60
2018-09-12T12:30:57.214Z,41.70
2018-09-12T12:35:56.224Z,44.70
2018-09-12T12:41:08.422Z,43.10
2018-09-12T12:43:34.923Z,41.60
2018-09-12T12:46:01.774Z,42.00
2018-09-12T12:48:28.297Z,43.80
2018-09-12T12:56:12.124Z,42.00
2018-09-12T13:01:10.253Z,41.80
2018-09-12T13:03:45.635Z,42.90
2018-09-12T13:06:12.296Z,42.10
2018-09-12T13:08:38.756Z,44.00
2018-09-12T13:11:05.212Z,42.70
2018-09-12T13:13:31.822Z,43.20
2018-09-12T13:16:02.944Z,41.10
2018-09-12T13:18:30.414Z,41.40
2018-09-12T13:21:03.532Z,40.80
2018-09-12T13:23:30.101Z,42.70
2018-09-12T13:26:01.366Z,42.70
2018-09-12T13:31:10.305Z,42.60
2018-09-12T13:33:37.095Z,44.30
2018-09-12T13:36:03.543Z,42.50
2018-09-12T13:43:57.253Z,42.30
2018-09-12T13:46:23.753Z,43.80
2018-09-12T13:48:57.909Z,43.30
2018-09-12T13:51:24.436Z,41.60
2018-09-12T13:54:00.316Z,42.20
2018-09-12T14:09:25.862Z,42.30
2018-09-12T14:11:57.678Z,44.10
2018-09-12T14:14:25.426Z,43.00
2018-09-12T14:19:34.868Z,43.60
2018-09-12T14:22:10.537Z,41.50
2018-09-12T14:24:38.830Z,42.00
2018-09-12T14:27:05.391Z,41.90
2018-09-12T14:29:32.010Z,42.50
2018-09-12T14:31:58.708Z,42.00
2018-09-12T14:34:26.165Z,41.90
2018-09-12T14:36:52.687Z,41.90
2018-09-12T14:41:52.749Z,43.20
2018-09-12T14:44:24.791Z,40.00
2018-09-12T14:46:51.395Z,41.20
2018-09-12T14:49:18.830Z,42.50
2018-09-12T14:51:46.963Z,42.60
2018-09-12T14:56:50.384Z,42.50
2018-09-12T14:59:17.707Z,42.50
2018-09-12T15:01:44.414Z,41.90
2018-09-12T15:07:03.904Z,41.90
2018-09-12T15:12:10.926Z,42.70
2018-09-12T15:19:54.042Z,42.80
2018-09-12T15:22:20.672Z,42.70
2018-09-12T15:27:19.018Z,43.00
2018-09-12T15:29:46.913Z,42.70
2018-09-12T15:32:13.520Z,42.10
2018-09-12T15:34:40.248Z,43.10
2018-09-12T15:37:07.004Z,43.60
2018-09-12T15:39:34.614Z,43.50
2018-09-12T15:42:01.780Z,44.20
2018-09-12T15:44:29.334Z,44.20
2018-09-12T15:46:55.999Z,43.70
2018-09-12T15:52:06.152Z,44.20
2018-09-12T15:57:45.177Z,45.90
2018-09-12T16:02:44.667Z,47.10
2018-09-12T16:05:13.079Z,47.30
2018-09-12T16:07:39.681Z,47.70
2018-09-12T16:12:38.986Z,48.90
2018-09-12T16:15:06.504Z,49.40
2018-09-12T16:17:33.419Z,49.60
2018-09-12T16:20:00.126Z,50.90
2018-09-12T16:24:58.974Z,52.00
2018-09-12T16:27:25.773Z,53.10
2018-09-12T16:29:54.274Z,54.00
2018-09-12T16:32:20.893Z,54.80
2018-09-12T16:37:19.095Z,55.80
2018-09-12T16:39:45.583Z,55.80
2018-09-12T16:42:12.170Z,56.40
2018-09-12T16:52:35.446Z,55.30
2018-09-12T16:55:02.071Z,56.20
2018-09-12T16:57:28.554Z,57.10
2018-09-12T17:00:02.662Z,56.40
2018-09-12T17:02:29.445Z,56.80
2018-09-12T17:04:59.479Z,56.70
2018-09-12T17:07:28.914Z,57.00
2018-09-12T17:09:55.572Z,57.70
2018-09-12T17:12:22.887Z,58.20
2018-09-12T17:17:27.519Z,56.30
2018-09-12T17:19:54.209Z,56.80
2018-09-12T17:22:26.068Z,57.80
2018-09-12T17:24:57.204Z,58.20
2018-09-12T17:29:59.947Z,58.60
2018-09-12T17:32:27.364Z,58.30
2018-09-12T17:34:59.944Z,58.00
2018-09-12T17:37:27.356Z,58.40
2018-09-12T17:39:54.184Z,59.30
2018-09-12T17:42:22.700Z,59.70
2018-09-12T17:44:51.815Z,60.60
2018-09-12T17:47:18.402Z,60.80
2018-09-12T17:49:45.037Z,61.50
2018-09-12T17:52:12.197Z,61.20
2018-09-12T17:54:38.883Z,61.30
2018-09-12T17:57:07.784Z,63.00
2018-09-12T17:59:39.507Z,62.80
2018-09-12T18:02:11.410Z,62.50
2018-09-12T18:04:41.803Z,63.00
2018-09-12T18:07:11.464Z,63.30
2018-09-12T18:09:42.128Z,64.20
2018-09-12T18:12:08.783Z,64.80
2018-09-12T18:14:36.647Z,66.00
2018-09-12T18:17:08.477Z,66.50
2018-09-12T18:19:40.398Z,66.30
2018-09-12T18:22:11.350Z,65.60
2018-09-12T18:27:11.099Z,67.10
2018-09-12T18:29:38.410Z,66.80
2018-09-12T18:37:13.756Z,68.30
2018-09-12T18:39:40.619Z,69.80
2018-09-12T18:42:07.376Z,68.50
2018-09-12T18:44:35.595Z,69.60
2018-09-12T18:47:04.911Z,70.30
2018-09-12T18:49:36.154Z,69.50
2018-09-12T18:52:02.735Z,70.60
2018-09-12T18:54:30.194Z,69.60
2018-09-12T18:56:56.791Z,71.20
2018-09-12T19:01:59.913Z,70.70
2018-09-12T19:04:28.932Z,70.80
2018-09-12T19:06:56.531Z,70.50
2018-09-12T19:09:23.262Z,70.80
2018-09-12T19:11:50.286Z,71.10
2018-09-12T19:14:21.424Z,71.40
2018-09-12T19:16:49.236Z,71.80
2018-09-12T19:19:20.646Z,72.80
2018-09-12T19:21:47.586Z,72.80
2018-09-12T19:26:52.960Z,76.90
2018-09-12T19:29:22.385Z,77.50
2018-09-12T19:31:52.388Z,76.30
2018-09-12T19:34:20.710Z,76.50
2018-09-12T19:36:48.409Z,76.70
2018-09-12T19:39:15.969Z,76.30
2018-09-12T19:41:45.054Z,76.50
2018-09-12T19:44:11.703Z,74.70
2018-09-12T19:46:39.291Z,74.30
2018-09-12T19:49:08.244Z,75.50
2018-09-12T19:51:34.958Z,75.90
2018-09-12T19:54:03.892Z,75.30
2018-09-12T19:56:30.679Z,77.40
2018-09-12T19:58:57.304Z,77.70
2018-09-12T20:01:24.332Z,77.20
2018-09-12T20:03:51.795Z,77.40
2018-09-12T20:06:19.967Z,78.30
2018-09-12T20:08:47.159Z,77.70
2018-09-12T20:13:49.362Z,76.90
2018-09-12T20:16:15.947Z,78.20
2018-09-12T20:18:43.298Z,79.50
2018-09-12T20:21:11.113Z,80.90
2018-09-12T20:23:37.883Z,80.20
2018-09-12T20:26:07.497Z,78.60
2018-09-12T20:28:34.103Z,78.30
2018-09-12T20:31:02.176Z,79.50
2018-09-12T20:33:28.775Z,79.10
2018-09-12T20:38:28.450Z,80.60
2018-09-12T20:40:56.633Z,80.90
2018-09-12T20:43:23.272Z,80.40
2018-09-12T20:48:25.854Z,80.90
2018-09-12T20:50:52.583Z,81.00
2018-09-12T20:53:20.886Z,80.70
2018-09-12T20:55:50.420Z,80.60
2018-09-12T20:58:18.121Z,80.30
2018-09-12T21:00:45.423Z,80.00
2018-09-12T21:03:14.869Z,80.50
2018-09-12T21:05:42.194Z,81.80
2018-09-12T21:08:09.716Z,81.30
2018-09-12T21:10:40.245Z,80.50
2018-09-12T21:15:39.464Z,81.40
2018-09-12T21:18:07.083Z,81.30
2018-09-12T21:20:39.980Z,80.50
2018-09-12T21:23:07.426Z,80.90
2018-09-12T21:25:35.021Z,81.20
2018-09-12T21:28:03.603Z,82.10
2018-09-12T21:30:31.186Z,82.40
2018-09-12T21:33:01.471Z,81.20
2018-09-12T21:35:29.632Z,82.60
2018-09-12T21:37:57.022Z,81.90
2018-09-12T21:40:25.948Z,83.10
2018-09-12T21:42:54.351Z,83.20
2018-09-12T21:45:21.115Z,83.30
2018-09-12T21:47:50.220Z,84.00
2018-09-12T21:50:16.885Z,84.50
2018-09-12T21:52:43.433Z,85.00
2018-09-12T21:55:13.436Z,85.40
2018-09-12T21:57:39.993Z,84.70
2018-09-12T22:00:11.487Z,84.30
2018-09-12T22:02:41.758Z,85.20
2018-09-12T22:07:41.852Z,87.00
2018-09-12T22:10:08.744Z,87.10
2018-09-12T22:12:35.490Z,86.60
2018-09-12T22:15:02.059Z,86.60
2018-09-12T22:17:30.640Z,85.40
2018-09-12T22:19:57.511Z,85.20
2018-09-12T22:22:24.527Z,85.40
2018-09-12T22:24:51.934Z,85.60
2018-09-12T22:27:18.769Z,87.10
2018-09-12T22:29:45.428Z,87.40
2018-09-12T22:32:12.757Z,86.40
2018-09-12T22:34:41.225Z,88.20
2018-09-12T22:37:08.360Z,89.10
2018-09-12T22:39:36.286Z,87.30
2018-09-12T22:42:03.654Z,86.60
2018-09-12T22:44:31.006Z,87.00
2018-09-12T22:46:59.722Z,89.70
2018-09-12T22:49:29.060Z,88.60
2018-09-12T22:51:56.832Z,87.50
2018-09-12T22:54:25.013Z,88.20
2018-09-12T22:56:51.775Z,88.30
2018-09-12T22:59:19.312Z,88.10
2018-09-12T23:01:45.998Z,88.70
2018-09-12T23:04:12.778Z,88.00
2018-09-12T23:06:39.442Z,87.10
2018-09-12T23:09:06.245Z,89.60
2018-09-12T23:11:32.821Z,88.90
2018-09-12T23:13:59.858Z,89.00
2018-09-12T23:16:28.091Z,89.80
2018-09-12T23:18:54.771Z,91.00
2018-09-12T23:21:21.826Z,90.30
2018-09-12T23:23:48.399Z,89.80
2018-09-12T23:26:15.708Z,88.70
2018-09-12T23:31:14.806Z,89.70
2018-09-12T23:33:41.482Z,90.20
2018-09-12T23:36:09.077Z,90.10
2018-09-12T23:38:37.102Z,90.10
2018-09-12T23:41:03.968Z,89.90
2018-09-12T23:43:30.711Z,90.30
2018-09-12T23:45:58.156Z,90.90
2018-09-12T23:48:24.690Z,90.70
2018-09-12T23:50:51.549Z,90.10
2018-09-12T23:55:52.863Z,89.40
2018-09-12T23:58:19.698Z,88.80
